This is the latest recevied weather packets stored in our database for station/object KP4FJC. If no packets are shown the sender has not sent any weather packets the latest 10 day(s).
| Time | Temp. | Humidity | Pressure | Rain* | Wind** | Luminosity | Snow |
|---|---|---|---|---|---|---|---|
| 1777310847 | 27.22° C | 92% | 1016.5 hPa | 1.78 mm | - | 90 W/m² | - |
| 1777310544 | 26.67° C | 92% | 1016.6 hPa | 0 mm | - | 109 W/m² | - |
| 1777310241 | 26.67° C | 91% | 1016.6 hPa | 0 mm | - | 92 W/m² | - |
| 1777309938 | 26.67° C | 90% | 1016.6 hPa | 0 mm | - | 91 W/m² | - |
| 1777309636 | 26.67° C | 89% | 1016.7 hPa | 0 mm | - | 93 W/m² | - |
| 1777309333 | 27.22° C | 87% | 1016.6 hPa | 0 mm | - | 131 W/m² | - |
| 1777309031 | 27.22° C | 84% | 1016.7 hPa | 0 mm | - | 161 W/m² | - |
| 1777308727 | 26.67° C | 85% | 1016.5 hPa | 0 mm | - | 202 W/m² | - |
| 1777308422 | 27.22° C | 86% | 1016.5 hPa | 0 mm | - | 247 W/m² | - |
| 1777308118 | 27.22° C | 87% | 1017.2 hPa | 0 mm | - | 241 W/m² | - |
| 1777307810 | 27.78° C | 83% | 1017.2 hPa | 0 mm | - | 272 W/m² | - |
| 1777307507 | 28.89° C | 78% | 1017.1 hPa | 0 mm | - | 126 W/m² | - |
| 1777307204 | 30° C | 75% | 1017 hPa | 0 mm | - | 120 W/m² | - |
| 1777306901 | 30.56° C | 75% | 1017 hPa | 0 mm | - | 471 W/m² | - |
| 1777306598 | 30° C | 78% | 1017.1 hPa | 0 mm | - | 458 W/m² | - |
| 1777306294 | 29.44° C | 78% | 1017.2 hPa | 0 mm | - | 594 W/m² | - |
| 1777305989 | 29.44° C | 78% | 1017.2 hPa | 0 mm | - | 676 W/m² | - |
| 1777305687 | 30° C | 77% | 1017.1 hPa | 0 mm | - | 406 W/m² | - |
| 1777305381 | 29.44° C | 78% | 1017.1 hPa | 0 mm | - | 858 W/m² | - |
| 1777305076 | 30° C | 76% | 1017.2 hPa | 0 mm | - | 460 W/m² | - |
| 1777304770 | 30° C | 76% | 1017.5 hPa | 0 mm | - | 650 W/m² | - |
| 1777304468 | 29.44° C | 78% | 1017.5 hPa | 0 mm | - | 390 W/m² | - |
| 1777304166 | 29.44° C | 77% | 1017.7 hPa | 0 mm | - | 663 W/m² | - |
| 1777303863 | 29.44° C | 78% | 1017.5 hPa | 0 mm | - | 402 W/m² | - |
| 1777303560 | 30° C | 76% | 1017.5 hPa | 0 mm | - | 850 W/m² | - |
* Rain latest hour (hover to see other rain measurements)
** Current wind speed in m/s (hover to see current wind gust speed)